Time;durP1;ratioP1;P1;durP2;ratioP2;P2;SDS_P1;SDS_P2;PMS_P1;PMS_P2;Temp;Humidity;BMP_temperature;BMP_pressure;BME280_temperature;BME280_humidity;BME280_pressure;Samples;Min_cycle;Max_cycle;Signal;HPM_P1;HPM_P2
2022/05/02 00:00:49;;;;;;;11.07;10.27;;;12.70;51.10;;;;;;20694;6853;117663;-72
2022/05/02 00:03:14;;;;;;;13.47;12.57;;;12.50;51.50;;;;;;20478;6853;300466;-72
2022/05/02 00:05:40;;;;;;;11.43;10.60;;;12.60;51.60;;;;;;20676;6853;117673;-72
2022/05/02 00:08:06;;;;;;;11.27;10.27;;;12.50;51.50;;;;;;20693;6853;118652;-72
2022/05/02 00:10:32;;;;;;;11.90;11.10;;;12.50;51.40;;;;;;20486;6853;278592;-72
2022/05/02 00:12:57;;;;;;;11.90;11.20;;;12.50;51.80;;;;;;20474;6853;302420;-72
2022/05/02 00:15:23;;;;;;;11.47;10.67;;;12.80;51.20;;;;;;20697;6853;119770;-71
2022/05/02 00:17:59;;;;;;;10.63;9.75;;;12.70;50.90;;;;;;20679;6853;123897;-72
2022/05/02 00:20:24;;;;;;;10.80;10.00;;;12.40;51.20;;;;;;20688;6853;117381;-72
2022/05/02 00:22:49;;;;;;;12.63;11.73;;;12.20;51.70;;;;;;20474;6853;312713;-71
2022/05/02 00:25:15;;;;;;;11.23;10.52;;;12.40;52.20;;;;;;20689;6853;117683;-73
2022/05/02 00:27:41;;;;;;;13.10;12.30;;;12.60;51.90;;;;;;20461;6854;341893;-72
2022/05/02 00:30:07;;;;;;;11.13;10.33;;;12.50;51.80;;;;;;20684;6854;117804;-71
2022/05/02 00:32:32;;;;;;;12.50;11.50;;;12.50;51.70;;;;;;20691;6854;117705;-71
2022/05/02 00:34:59;;;;;;;12.40;11.40;;;12.00;52.10;;;;;;20692;6854;118032;-71
2022/05/02 00:37:24;;;;;;;12.33;11.37;;;12.00;52.10;;;;;;20696;6854;124900;-71
2022/05/02 00:39:51;;;;;;;11.70;10.90;;;11.70;52.80;;;;;;20676;6854;117712;-71
2022/05/02 00:42:18;;;;;;;13.25;12.43;;;11.70;53.30;;;;;;20481;6854;330346;-71
2022/05/02 00:44:42;;;;;;;10.80;10.10;;;11.90;53.10;;;;;;20692;6854;117694;-71
2022/05/02 00:47:07;;;;;;;11.47;10.67;;;12.00;52.90;;;;;;20688;6854;117733;-70
2022/05/02 00:49:33;;;;;;;12.57;11.77;;;11.90;53.10;;;;;;20462;6854;308621;-71
2022/05/02 00:51:59;;;;;;;12.47;11.47;;;12.10;53.40;;;;;;20699;6854;117777;-71
2022/05/02 00:54:25;;;;;;;11.83;11.03;;;12.10;52.90;;;;;;20699;6854;117691;-70
2022/05/02 00:56:51;;;;;;;13.93;13.02;;;12.00;53.00;;;;;;20476;6854;328190;-71
2022/05/02 00:59:16;;;;;;;15.07;13.97;;;12.20;52.90;;;;;;20474;6854;313143;-71
2022/05/02 01:01:42;;;;;;;15.32;14.32;;;12.50;52.70;;;;;;20454;6852;309504;-71
2022/05/02 01:04:07;;;;;;;15.13;14.13;;;12.80;51.40;;;;;;20483;6853;339522;-71
2022/05/02 01:09:18;;;;;;;16.57;15.37;;;13.10;50.80;;;;;;20475;6853;307821;-71
2022/05/02 01:11:44;;;;;;;15.57;14.40;;;13.20;50.80;;;;;;20456;6853;308028;-71
2022/05/02 01:14:09;;;;;;;15.23;14.02;;;13.20;50.80;;;;;;20472;6853;311597;-71
2022/05/02 01:16:35;;;;;;;13.62;12.63;;;13.20;50.60;;;;;;20482;6853;283523;-71
2022/05/02 01:19:01;;;;;;;15.43;14.32;;;13.20;50.80;;;;;;20468;6853;301202;-71
2022/05/02 01:21:26;;;;;;;13.07;12.03;;;13.20;50.20;;;;;;20672;6853;124478;-71
2022/05/02 01:23:52;;;;;;;13.30;12.40;;;12.90;50.40;;;;;;20682;6853;118297;-71
2022/05/02 01:26:17;;;;;;;15.20;14.10;;;12.50;51.00;;;;;;20479;6853;279185;-71
2022/05/02 01:28:49;;;;;;;13.23;12.25;;;12.40;51.10;;;;;;20688;6853;118719;-71
2022/05/02 01:31:16;;;;;;;16.05;14.80;;;12.40;51.50;;;;;;20466;6853;278382;-71
2022/05/02 01:33:41;;;;;;;15.03;14.03;;;12.30;51.40;;;;;;20447;6853;309970;-71
2022/05/02 01:36:08;;;;;;;14.23;13.07;;;12.30;51.10;;;;;;20681;6853;117752;-70
2022/05/02 01:38:35;;;;;;;15.68;14.57;;;12.30;51.00;;;;;;20482;6853;305253;-71
2022/05/02 01:41:00;;;;;;;15.55;14.45;;;12.30;51.60;;;;;;20370;6854;279287;-72
2022/05/02 01:43:26;;;;;;;16.37;15.23;;;12.50;51.60;;;;;;20466;6854;337760;-74
2022/05/02 01:45:51;;;;;;;15.67;14.57;;;12.70;51.50;;;;;;20437;6868;282383;-71
2022/05/02 01:48:17;;;;;;;15.85;14.65;;;12.80;51.20;;;;;;20421;6869;308413;-71
2022/05/02 01:50:42;;;;;;;15.35;14.27;;;12.90;50.90;;;;;;20461;6854;279144;-71
2022/05/02 01:53:08;;;;;;;14.87;13.77;;;12.70;51.00;;;;;;20694;6854;117995;-71
2022/05/02 01:55:34;;;;;;;16.03;14.83;;;12.60;50.90;;;;;;20454;6854;281237;-71
2022/05/02 01:58:00;;;;;;;16.60;15.30;;;12.80;51.10;;;;;;20461;6854;283630;-71
2022/05/02 02:00:26;;;;;;;15.33;13.90;;;12.70;51.00;;;;;;20694;6854;117669;-71
2022/05/02 02:02:51;;;;;;;16.08;14.93;;;12.60;51.10;;;;;;20477;6854;279129;-71
2022/05/02 02:08:03;;;;;;;15.97;14.77;;;12.60;50.60;;;;;;20476;6854;278991;-71
2022/05/02 02:10:28;;;;;;;14.87;13.80;;;12.70;50.40;;;;;;20479;6854;305850;-71
2022/05/02 02:12:54;;;;;;;14.27;13.30;;;12.70;50.20;;;;;;20477;6852;292893;-71
2022/05/02 02:15:19;;;;;;;13.07;11.82;;;12.70;49.70;;;;;;20699;6853;117494;-71
2022/05/02 02:17:45;;;;;;;14.95;13.85;;;12.40;50.00;;;;;;20460;6853;308642;-71
2022/05/02 02:20:10;;;;;;;12.77;11.77;;;12.30;50.40;;;;;;20693;6853;117657;-71
2022/05/02 02:22:37;;;;;;;12.83;11.77;;;11.70;51.50;;;;;;20693;6853;117498;-71
2022/05/02 02:25:02;;;;;;;12.67;11.67;;;11.60;51.30;;;;;;20691;6853;118077;-71
2022/05/02 02:27:28;;;;;;;14.60;13.55;;;11.40;52.00;;;;;;20459;6853;335421;-71
2022/05/02 02:29:54;;;;;;;13.33;12.43;;;11.50;52.40;;;;;;20684;6853;117769;-71
2022/05/02 02:32:19;;;;;;;13.53;12.73;;;11.40;52.30;;;;;;20478;6853;296634;-71
2022/05/02 02:34:45;;;;;;;13.17;12.17;;;11.50;52.70;;;;;;20687;6853;118084;-71
2022/05/02 02:37:10;;;;;;;12.20;11.30;;;11.50;52.50;;;;;;20684;6853;118572;-71
2022/05/02 02:39:36;;;;;;;13.97;13.07;;;11.20;52.70;;;;;;20456;6853;279346;-71
2022/05/02 02:42:01;;;;;;;14.18;13.20;;;11.40;52.70;;;;;;20476;6853;337354;-71
2022/05/02 02:44:27;;;;;;;14.20;13.10;;;11.60;51.90;;;;;;20696;6853;117646;-71
2022/05/02 02:46:52;;;;;;;16.10;14.90;;;11.50;51.90;;;;;;20468;6853;336850;-71
2022/05/02 02:49:18;;;;;;;15.73;14.52;;;11.50;52.40;;;;;;20483;6853;280902;-71
2022/05/02 02:51:44;;;;;;;14.27;13.15;;;11.80;52.10;;;;;;20450;6854;308652;-71
2022/05/02 02:54:09;;;;;;;13.00;12.00;;;12.00;51.80;;;;;;20689;6854;118191;-71
2022/05/02 02:56:35;;;;;;;14.87;13.77;;;11.80;51.90;;;;;;20478;6854;309178;-71
2022/05/02 02:59:00;;;;;;;12.30;11.40;;;11.80;51.80;;;;;;20695;6854;117558;-71
2022/05/02 03:01:26;;;;;;;14.35;13.32;;;11.70;52.00;;;;;;20456;6854;338443;-72
2022/05/02 03:03:51;;;;;;;13.05;12.00;;;11.70;51.90;;;;;;20691;6854;117772;-71
2022/05/02 03:06:17;;;;;;;13.82;12.90;;;11.60;52.00;;;;;;20474;6854;338046;-71
2022/05/02 03:08:44;;;;;;;14.17;13.00;;;11.70;52.10;;;;;;20473;6854;308226;-71
2022/05/02 03:11:08;;;;;;;13.85;12.95;;;11.90;51.60;;;;;;20475;6854;311927;-72
2022/05/02 03:13:37;;;;;;;14.30;13.23;;;12.10;50.90;;;;;;20452;6854;318005;-71
2022/05/02 03:16:03;;;;;;;12.33;11.43;;;12.00;51.20;;;;;;20698;6854;118175;-72
2022/05/02 03:18:29;;;;;;;12.37;11.33;;;12.00;50.70;;;;;;20692;6854;117786;-71
2022/05/02 03:20:54;;;;;;;12.13;11.00;;;11.60;51.30;;;;;;20693;6854;124218;-71
2022/05/02 03:23:20;;;;;;;13.63;12.73;;;11.30;51.90;;;;;;20474;6854;308621;-71
2022/05/02 03:25:45;;;;;;;14.20;13.00;;;11.40;52.00;;;;;;20467;6852;307972;-72
2022/05/02 03:28:11;;;;;;;12.43;11.53;;;11.60;51.00;;;;;;20696;6853;117670;-71
2022/05/02 03:30:36;;;;;;;13.62;12.20;;;11.50;51.10;;;;;;20472;6853;341886;-71
2022/05/02 03:33:02;;;;;;;15.15;13.57;;;11.50;51.00;;;;;;20487;6853;281834;-69
2022/05/02 03:35:28;;;;;;;16.15;13.52;;;11.70;50.30;;;;;;20455;6853;295077;-69
2022/05/02 03:37:53;;;;;;;19.00;12.53;;;11.80;50.00;;;;;;20693;6853;117709;-68
2022/05/02 03:40:20;;;;;;;19.77;11.57;;;11.10;50.60;;;;;;20691;6853;118084;-68
2022/05/02 03:42:45;;;;;;;11.87;10.83;;;11.10;50.90;;;;;;20691;6853;118117;-68
2022/05/02 03:45:11;;;;;;;49.93;11.50;;;10.80;51.60;;;;;;20686;6853;121433;-68
2022/05/02 03:47:36;;;;;;;43.10;11.50;;;10.50;52.10;;;;;;20678;6853;118692;-67
2022/05/02 03:50:02;;;;;;;23.93;11.17;;;10.30;52.60;;;;;;20693;6853;117834;-67
2022/05/02 03:52:27;;;;;;;15.00;13.63;;;10.10;52.80;;;;;;20473;6853;337404;-67
2022/05/02 03:54:53;;;;;;;13.87;12.97;;;10.30;53.10;;;;;;20488;6853;279209;-67
2022/05/02 03:57:19;;;;;;;14.10;13.20;;;10.70;52.50;;;;;;20482;6853;278697;-66
2022/05/02 03:59:45;;;;;;;15.18;13.98;;;11.00;51.80;;;;;;20461;6853;338208;-66
2022/05/02 04:02:10;;;;;;;14.47;13.47;;;11.20;51.30;;;;;;20479;6854;336881;-67
2022/05/02 04:04:35;;;;;;;15.77;14.50;;;11.30;51.40;;;;;;20488;6854;279099;-67
2022/05/02 04:07:01;;;;;;;13.27;12.17;;;11.40;50.60;;;;;;20685;6854;117706;-67
2022/05/02 04:09:27;;;;;;;13.95;12.95;;;11.10;51.20;;;;;;20458;6854;319560;-68
2022/05/02 04:11:53;;;;;;;13.43;12.23;;;11.10;51.20;;;;;;20725;6854;122064;-67
2022/05/02 04:14:18;;;;;;;14.60;13.60;;;10.90;51.40;;;;;;20520;6854;279014;-67
2022/05/02 04:16:44;;;;;;;14.80;13.70;;;10.90;51.20;;;;;;20526;6854;296511;-67
2022/05/02 04:19:09;;;;;;;15.48;14.48;;;11.20;50.90;;;;;;20522;6854;311077;-67
2022/05/02 04:21:35;;;;;;;13.27;12.27;;;11.30;50.40;;;;;;20678;6854;145148;-67
2022/05/02 04:24:00;;;;;;;11.93;11.03;;;11.10;50.50;;;;;;20689;6854;118323;-66
2022/05/02 04:26:26;;;;;;;14.73;13.63;;;10.70;51.20;;;;;;20484;6854;308701;-66
2022/05/02 04:28:52;;;;;;;15.98;14.80;;;11.10;51.40;;;;;;20493;6854;308650;-67
2022/05/02 04:31:18;;;;;;;14.57;13.37;;;11.00;51.30;;;;;;20721;6854;118066;-68
2022/05/02 04:33:45;;;;;;;13.15;12.05;;;10.70;52.00;;;;;;20705;6854;118208;-67
2022/05/02 04:36:10;;;;;;;13.83;12.73;;;10.70;52.00;;;;;;20728;6852;117608;-67
2022/05/02 04:38:35;;;;;;;15.60;14.50;;;10.50;52.60;;;;;;20547;6853;305903;-67
2022/05/02 04:41:01;;;;;;;14.73;13.53;;;10.70;53.30;;;;;;20718;6853;117486;-70
2022/05/02 04:43:27;;;;;;;14.70;13.40;;;10.60;52.50;;;;;;20642;6868;122561;-67
2022/05/02 04:45:53;;;;;;;13.70;12.60;;;10.50;52.70;;;;;;20686;6868;118194;-68
2022/05/02 04:48:18;;;;;;;13.50;12.37;;;10.40;53.10;;;;;;20669;6868;119386;-68
2022/05/02 04:50:44;;;;;;;17.00;15.67;;;10.30;52.80;;;;;;20479;6858;337179;-71
2022/05/02 04:53:09;;;;;;;15.13;13.82;;;10.50;53.20;;;;;;20724;6853;122378;-68
2022/05/02 04:55:35;;;;;;;14.03;12.93;;;10.40;53.20;;;;;;20715;6853;131730;-68
2022/05/02 04:58:01;;;;;;;16.43;15.23;;;10.40;53.20;;;;;;20517;6853;308684;-70
2022/05/02 05:00:27;;;;;;;14.70;13.50;;;10.60;52.90;;;;;;20717;6853;119297;-68
2022/05/02 05:02:52;;;;;;;15.75;14.55;;;10.70;52.80;;;;;;20484;6853;336965;-68
2022/05/02 05:05:18;;;;;;;17.27;15.98;;;10.80;52.30;;;;;;20474;6853;332360;-66
2022/05/02 05:07:44;;;;;;;15.40;14.10;;;11.10;52.30;;;;;;20679;6853;118664;-66
2022/05/02 05:10:10;;;;;;;16.37;15.10;;;11.10;51.70;;;;;;20490;6853;281134;-68
2022/05/02 05:13:03;;;;;;;15.85;14.75;;;11.50;51.20;;;;;;20520;6853;308754;-67
2022/05/02 05:19:04;;;;;;;17.02;15.73;;;11.40;51.30;;;;;;20252;6854;337316;-68
2022/05/02 05:22:10;;;;;;;14.30;13.20;;;11.40;51.30;;;;;;19648;7196;120330;-68
2022/05/02 05:24:41;;;;;;;14.53;13.27;;;11.20;51.40;;;;;;19663;7196;120908;-70
2022/05/02 05:27:08;;;;;;;13.07;12.07;;;10.90;52.10;;;;;;19949;6873;120108;-70
2022/05/02 05:29:43;;;;;;;12.73;11.82;;;10.70;52.80;;;;;;20626;6864;118939;-69
2022/05/02 05:32:21;;;;;;;13.67;12.60;;;10.60;53.30;;;;;;20654;6868;118200;-69
2022/05/02 05:35:00;;;;;;;15.93;14.63;;;10.50;53.50;;;;;;20480;6868;312250;-68
2022/05/02 05:37:33;;;;;;;16.15;14.85;;;11.20;53.20;;;;;;20524;6854;280899;-69
2022/05/02 05:40:02;;;;;;;15.53;14.37;;;11.20;52.50;;;;;;20336;6854;307266;-68
2022/05/02 05:42:50;;;;;;;12.57;11.67;;;11.60;51.80;;;;;;20676;6854;124097;-69
2022/05/02 05:45:19;;;;;;;13.93;12.73;;;11.50;51.80;;;;;;20691;6854;117556;-69
2022/05/02 05:47:55;;;;;;;15.30;14.20;;;11.30;52.40;;;;;;20433;6852;425116;-69
2022/05/02 05:50:24;;;;;;;13.03;11.90;;;11.40;52.30;;;;;;20661;6853;118065;-70
2022/05/02 05:53:02;;;;;;;15.10;14.05;;;11.40;52.20;;;;;;20453;6853;312140;-69
2022/05/02 05:55:44;;;;;;;13.67;12.67;;;11.60;52.10;;;;;;20669;6853;118569;-69
2022/05/02 05:58:26;;;;;;;11.90;11.00;;;11.50;52.00;;;;;;20698;6853;117920;-69
2022/05/02 06:00:52;;;;;;;13.60;12.50;;;11.40;52.60;;;;;;20689;6853;118697;-69
2022/05/02 06:03:17;;;;;;;15.15;14.05;;;11.30;53.00;;;;;;20467;6853;312554;-70
2022/05/02 06:05:43;;;;;;;15.70;14.60;;;11.50;53.30;;;;;;20434;6853;307751;-70
2022/05/02 06:08:15;;;;;;;13.87;12.77;;;11.90;52.00;;;;;;20683;6853;117719;-70
2022/05/02 06:10:40;;;;;;;15.15;14.05;;;12.00;51.90;;;;;;20494;6853;282328;-68
2022/05/02 06:13:07;;;;;;;15.90;14.80;;;12.50;51.50;;;;;;20494;6853;338655;-68
2022/05/02 06:18:30;;;;;;;12.37;11.47;;;12.40;51.10;;;;;;20711;6853;117707;-68
2022/05/02 06:20:59;;;;;;;12.27;11.27;;;12.20;51.70;;;;;;20699;6853;117638;-67
2022/05/02 06:23:25;;;;;;;15.27;14.07;;;12.10;52.20;;;;;;20480;6853;300929;-67
2022/05/02 06:25:51;;;;;;;14.68;13.40;;;12.40;52.40;;;;;;20664;6854;124959;-68
2022/05/02 06:28:17;;;;;;;14.40;13.43;;;12.40;52.40;;;;;;20473;6854;337372;-69
2022/05/02 06:30:42;;;;;;;14.30;13.20;;;12.70;52.30;;;;;;20457;6854;308658;-68
2022/05/02 06:33:11;;;;;;;13.13;12.10;;;13.20;51.30;;;;;;20675;6854;117701;-68
2022/05/02 06:35:56;;;;;;;14.23;13.32;;;13.30;51.20;;;;;;20450;6854;308563;-68
2022/05/02 06:38:29;;;;;;;12.53;11.63;;;13.60;51.10;;;;;;20693;6854;117602;-68
2022/05/02 06:40:58;;;;;;;14.50;13.50;;;13.60;51.10;;;;;;20450;6854;308687;-68
2022/05/02 06:43:40;;;;;;;13.17;12.17;;;14.10;51.30;;;;;;20625;6854;119229;-68
2022/05/02 06:46:20;;;;;;;12.40;11.50;;;14.50;51.30;;;;;;20669;6854;117842;-69
2022/05/02 06:48:54;;;;;;;13.88;12.90;;;14.50;51.30;;;;;;20422;6854;342215;-69
2022/05/02 06:51:20;;;;;;;12.77;11.80;;;15.00;49.90;;;;;;20687;6854;118131;-67
2022/05/02 06:53:48;;;;;;;12.63;11.70;;;15.30;49.50;;;;;;20660;6854;118062;-68
2022/05/02 06:56:14;;;;;;;19.67;13.87;;;15.30;49.60;;;;;;20477;6854;279107;-68
2022/05/02 06:59:02;;;;;;;14.67;13.43;;;15.60;47.20;;;;;;20449;6852;318476;-67
2022/05/02 07:01:44;;;;;;;13.00;12.20;;;16.10;46.50;;;;;;20665;6853;119373;-69
2022/05/02 07:04:10;;;;;;;13.95;13.05;;;16.10;46.50;;;;;;20476;6853;323062;-67
2022/05/02 07:06:48;;;;;;;14.43;13.45;;;16.30;46.10;;;;;;20458;6853;307995;-68
2022/05/02 07:09:22;;;;;;;15.47;14.37;;;16.90;45.00;;;;;;20470;6853;278849;-69
2022/05/02 07:11:47;;;;;;;14.67;13.67;;;16.80;44.90;;;;;;20422;6853;308274;-68
2022/05/02 07:14:16;;;;;;;13.03;12.03;;;17.10;46.10;;;;;;20667;6853;117656;-69
2022/05/02 07:16:43;;;;;;;14.13;13.13;;;17.20;44.70;;;;;;20450;6853;310512;-68
2022/05/02 07:19:25;;;;;;;12.80;11.90;;;17.10;44.60;;;;;;20635;6853;117576;-68
2022/05/02 07:22:03;;;;;;;13.20;12.20;;;17.10;45.00;;;;;;20658;6853;118539;-68
2022/05/02 07:24:49;;;;;;;15.20;14.00;;;17.20;45.30;;;;;;20443;6853;338501;-68
2022/05/02 07:27:18;;;;;;;12.90;11.83;;;17.20;45.20;;;;;;20665;6853;117694;-68
2022/05/02 07:29:44;;;;;;;13.83;12.90;;;17.30;45.40;;;;;;20454;6853;306718;-68
2022/05/02 07:32:10;;;;;;;14.60;13.60;;;17.50;44.80;;;;;;20466;6853;308337;-68
2022/05/02 07:34:36;;;;;;;12.90;11.65;;;17.90;43.30;;;;;;20680;6853;122763;-68
2022/05/02 07:37:01;;;;;;;14.68;13.68;;;18.00;43.50;;;;;;20481;6854;278802;-68
2022/05/02 07:39:26;;;;;;;13.95;12.95;;;18.20;42.70;;;;;;20456;6854;308294;-70
2022/05/02 07:41:52;;;;;;;13.13;12.23;;;18.70;42.20;;;;;;20631;6873;118227;-69
2022/05/02 07:44:20;;;;;;;14.37;13.27;;;18.60;42.50;;;;;;20652;6868;118896;-69
2022/05/02 07:46:45;;;;;;;14.30;13.10;;;18.60;42.50;;;;;;20457;6858;310436;-70
2022/05/02 07:49:10;;;;;;;15.97;14.67;;;18.80;42.20;;;;;;20468;6858;283427;-73
2022/05/02 07:51:43;;;;;;;13.47;12.27;;;19.20;41.50;;;;;;20607;6868;148980;-74
2022/05/02 07:54:08;;;;;;;12.97;11.97;;;19.30;41.40;;;;;;20675;6858;117835;-74
2022/05/02 07:56:34;;;;;;;13.97;12.77;;;19.20;41.70;;;;;;20619;6868;124297;-73
2022/05/02 07:59:00;;;;;;;13.83;12.83;;;19.30;40.70;;;;;;20457;6858;318115;-75
2022/05/02 08:01:25;;;;;;;13.73;12.57;;;19.30;40.70;;;;;;20640;6868;122057;-73
2022/05/02 08:03:51;;;;;;;13.60;12.60;;;19.50;41.10;;;;;;20662;6858;125847;-74
2022/05/02 08:06:34;;;;;;;13.80;12.70;;;19.50;41.60;;;;;;20631;6868;118053;-74
2022/05/02 08:09:19;;;;;;;12.50;11.53;;;19.50;41.60;;;;;;20648;6858;118207;-73
2022/05/02 08:11:48;;;;;;;14.10;12.70;;;19.50;41.90;;;;;;20444;6852;300532;-74
2022/05/02 08:14:17;;;;;;;11.80;10.93;;;19.90;41.00;;;;;;20657;6853;117552;-73
2022/05/02 08:16:45;;;;;;;12.43;11.43;;;20.10;41.10;;;;;;20679;6853;117478;-74
2022/05/02 08:19:22;;;;;;;13.70;12.60;;;20.10;41.50;;;;;;20443;6853;309777;-74
2022/05/02 08:27:15;;;;;;;12.93;12.13;;;20.50;40.50;;;;;;20043;6853;311389;-74
2022/05/02 08:27:35;;;;;;;12.10;11.13;;;21.40;37.80;;;;;;20690;6853;117726;-74
2022/05/02 08:30:03;;;;;;;13.40;12.07;;;21.40;38.30;;;;;;20676;6853;117973;-74
2022/05/02 08:32:32;;;;;;;12.30;11.43;;;21.20;38.80;;;;;;20686;6853;117557;-73
2022/05/02 08:35:01;;;;;;;13.57;12.60;;;21.10;39.20;;;;;;20480;6853;280481;-73
2022/05/02 08:37:38;;;;;;;13.50;12.50;;;21.40;37.50;;;;;;20435;6853;308620;-73
2022/05/02 08:40:20;;;;;;;12.07;11.13;;;21.70;37.40;;;;;;20661;6853;118176;-72
2022/05/02 08:43:22;;;;;;;12.50;11.70;;;21.70;38.10;;;;;;20685;6853;117750;-73
2022/05/02 08:46:20;;;;;;;12.33;11.33;;;21.60;38.70;;;;;;20676;6853;122809;-73
2022/05/02 08:48:46;;;;;;;12.57;11.57;;;21.50;39.20;;;;;;20691;6854;125015;-73
2022/05/02 08:51:32;;;;;;;12.93;11.80;;;21.50;40.20;;;;;;20695;6854;118126;-73
2022/05/02 08:54:11;;;;;;;12.50;11.50;;;21.50;39.30;;;;;;20639;6854;118356;-73
2022/05/02 08:56:49;;;;;;;14.30;13.30;;;21.50;39.10;;;;;;20446;6854;300374;-73
2022/05/02 08:59:19;;;;;;;13.73;12.43;;;22.00;37.80;;;;;;20668;6854;118121;-73
2022/05/02 09:02:04;;;;;;;161.47;29.57;;;21.90;37.70;;;;;;20543;6854;119860;-73
2022/05/02 09:04:53;;;;;;;13.77;12.60;;;21.90;38.30;;;;;;20479;6854;289249;-73
2022/05/02 09:07:35;;;;;;;14.82;12.73;;;22.20;37.00;;;;;;20481;6854;338215;-73
2022/05/02 09:10:27;;;;;;;13.40;12.20;;;22.60;36.50;;;;;;20278;6854;117717;-74
2022/05/02 09:13:29;;;;;;;12.53;11.73;;;22.60;37.20;;;;;;20483;6854;307776;-73
2022/05/02 09:16:14;;;;;;;30.83;15.07;;;22.80;36.60;;;;;;20436;6854;308674;-73
2022/05/02 09:19:16;;;;;;;209.20;27.60;;;23.10;34.90;;;;;;20694;6854;118039;-73
2022/05/02 09:22:05;;;;;;;12.93;11.27;;;23.10;35.70;;;;;;20746;6722;119484;-73
2022/05/02 09:24:51;;;;;;;13.05;11.45;;;22.90;35.90;;;;;;20634;6751;306619;-73
2022/05/02 09:27:53;;;;;;;10.20;9.30;;;22.90;35.90;;;;;;20822;6745;146774;-72
2022/05/02 09:31:08;;;;;;;17.80;10.80;;;22.90;35.60;;;;;;20803;6746;121041;-74
2022/05/02 09:34:17;;;;;;;10.47;9.30;;;22.60;35.60;;;;;;20826;6746;123409;-73
2022/05/02 09:37:06;;;;;;;10.07;9.43;;;22.40;35.90;;;;;;20864;6741;117239;-76
2022/05/02 09:39:48;;;;;;;11.15;10.25;;;22.30;36.00;;;;;;20606;6759;307123;-74
2022/05/02 09:42:44;;;;;;;15.03;10.40;;;22.50;33.60;;;;;;20891;6732;117347;-72
2022/05/02 09:51:37;;;;;;;9.50;8.83;;;22.70;33.80;;;;;;20492;6754;301934;-74
2022/05/02 09:57:12;;;;;;;10.73;9.97;;;23.50;33.20;;;;;;19936;6816;311012;-73
2022/05/02 09:59:48;;;;;;;10.87;10.07;;;23.50;33.20;;;;;;20793;6761;119223;-72
2022/05/02 10:02:23;;;;;;;10.60;9.90;;;23.40;33.20;;;;;;20807;6761;117593;-73
2022/05/02 10:05:05;;;;;;;11.77;10.97;;;23.20;33.90;;;;;;20644;6746;310751;-72
2022/05/02 10:07:40;;;;;;;11.20;10.50;;;23.20;33.10;;;;;;20653;6749;335617;-72
2022/05/02 10:10:16;;;;;;;10.50;9.80;;;23.40;32.80;;;;;;20862;6734;118008;-73
2022/05/02 10:13:18;;;;;;;10.93;10.03;;;23.10;33.20;;;;;;20838;6754;117456;-74
2022/05/02 10:15:53;;;;;;;11.10;10.48;;;22.80;33.80;;;;;;20527;6778;331137;-71
2022/05/02 10:18:35;;;;;;;10.40;9.70;;;22.90;32.50;;;;;;20595;6758;278107;-72
2022/05/02 10:21:37;;;;;;;9.60;9.10;;;23.00;34.20;;;;;;20547;6744;312959;-72
2022/05/02 10:24:36;;;;;;;10.10;9.40;;;23.30;33.90;;;;;;20844;6744;116980;-71
2022/05/02 10:27:33;;;;;;;9.67;9.07;;;23.00;34.20;;;;;;20763;6776;117270;-70
2022/05/02 10:30:10;;;;;;;9.80;9.27;;;22.90;35.00;;;;;;20682;6789;118284;-70
2022/05/02 10:32:51;;;;;;;164.47;29.10;;;22.90;34.60;;;;;;20742;6785;117703;-71
2022/05/02 10:35:26;;;;;;;13.93;10.73;;;22.80;34.40;;;;;;20765;6775;117762;-73
2022/05/02 10:38:05;;;;;;;10.30;9.50;;;22.50;34.40;;;;;;20716;6792;117708;-71
2022/05/02 10:40:40;;;;;;;9.40;8.87;;;22.20;34.00;;;;;;20814;6744;118359;-70
2022/05/02 10:43:16;;;;;;;10.15;9.45;;;21.90;34.30;;;;;;20616;6745;276549;-70
2022/05/02 10:45:53;;;;;;;11.67;8.80;;;22.10;34.50;;;;;;20473;6795;311781;-70
2022/05/02 10:48:55;;;;;;;9.07;8.27;;;22.50;34.50;;;;;;20784;6758;117296;-71
2022/05/02 10:51:37;;;;;;;7.77;7.27;;;22.70;34.90;;;;;;19586;7137;120258;-71
2022/05/02 10:54:41;;;;;;;9.57;8.98;;;23.00;33.20;;;;;;20578;6755;308976;-71
2022/05/02 10:57:39;;;;;;;10.03;9.43;;;23.10;33.30;;;;;;20793;6793;118427;-71
2022/05/02 11:00:16;;;;;;;9.70;8.93;;;22.90;33.70;;;;;;20751;6784;122685;-70
2022/05/02 11:03:14;;;;;;;10.40;9.60;;;22.90;33.70;;;;;;20828;6773;118046;-70
2022/05/02 11:06:03;;;;;;;10.32;9.73;;;22.80;34.10;;;;;;20629;6760;335115;-70
2022/05/02 11:08:46;;;;;;;7.17;6.77;;;23.00;33.00;;;;;;20849;6772;117159;-71
2022/05/02 11:11:45;;;;;;;7.10;6.40;;;23.00;33.00;;;;;;20714;6758;118064;-72
2022/05/02 11:14:36;;;;;;;6.50;6.17;;;22.90;32.70;;;;;;20773;6783;117178;-73
2022/05/02 11:17:25;;;;;;;7.47;7.03;;;22.60;32.90;;;;;;20584;6773;307627;-72
2022/05/02 11:23:28;;;;;;;7.63;7.07;;;23.50;32.30;;;;;;20622;6752;311097;-74
2022/05/02 11:26:37;;;;;;;6.63;6.23;;;23.40;32.20;;;;;;20735;6785;117382;-73
2022/05/02 11:29:32;;;;;;;8.02;7.43;;;23.50;32.50;;;;;;20578;6768;335987;-72
2022/05/02 11:32:27;;;;;;;6.03;5.65;;;23.60;30.80;;;;;;20415;6770;342374;-72
2022/05/02 11:35:13;;;;;;;5.30;4.90;;;23.80;30.90;;;;;;20796;6777;117527;-72
2022/05/02 11:37:54;;;;;;;7.63;7.13;;;23.60;30.90;;;;;;20719;6781;118224;-71
2022/05/02 11:40:30;;;;;;;8.00;7.50;;;23.40;31.70;;;;;;20504;6760;310746;-72
2022/05/02 11:43:06;;;;;;;7.70;7.20;;;23.40;32.40;;;;;;20819;6755;116264;-71
2022/05/02 11:45:42;;;;;;;7.20;6.70;;;23.50;32.50;;;;;;20480;6770;309719;-71
2022/05/02 11:48:22;;;;;;;6.90;6.50;;;23.60;30.90;;;;;;20481;6792;278833;-72
2022/05/02 11:50:57;;;;;;;6.65;6.25;;;23.90;31.60;;;;;;20452;6792;280271;-74
2022/05/02 11:53:32;;;;;;;6.85;6.35;;;24.00;31.00;;;;;;20624;6747;340277;-70
2022/05/02 11:56:09;;;;;;;6.63;6.23;;;24.30;30.40;;;;;;20578;6766;307296;-71
2022/05/02 11:58:45;;;;;;;7.00;6.60;;;24.20;30.30;;;;;;20787;6737;117602;-70
2022/05/02 12:01:20;;;;;;;7.60;7.10;;;24.20;30.60;;;;;;20621;6772;117320;-70
2022/05/02 12:04:00;;;;;;;7.77;7.17;;;23.90;31.10;;;;;;20706;6788;118153;-72
2022/05/02 12:06:42;;;;;;;8.50;7.80;;;23.60;31.60;;;;;;20516;6786;308121;-69
2022/05/02 12:09:17;;;;;;;7.07;6.67;;;23.60;30.90;;;;;;20754;6785;119404;-72
2022/05/02 12:11:54;;;;;;;6.97;6.63;;;23.40;31.70;;;;;;20644;6758;118691;-71
2022/05/02 12:14:30;;;;;;;7.53;7.03;;;23.40;32.40;;;;;;20773;6763;117374;-70
2022/05/02 12:17:09;;;;;;;7.57;7.07;;;23.20;32.00;;;;;;20830;6769;117190;-69
2022/05/02 12:19:44;;;;;;;7.43;7.03;;;22.70;31.90;;;;;;20864;6769;119212;-71
2022/05/02 12:22:22;;;;;;;7.63;7.20;;;22.70;31.80;;;;;;20821;6755;117555;-71
2022/05/02 12:24:55;;;;;;;8.03;7.53;;;22.60;32.40;;;;;;20821;6759;117335;-72
2022/05/02 12:27:31;;;;;;;7.90;7.40;;;22.60;32.80;;;;;;20804;6759;119742;-70
2022/05/02 12:30:07;;;;;;;6.80;6.33;;;22.60;33.00;;;;;;20851;6744;119847;-70
2022/05/02 12:32:42;;;;;;;6.70;6.30;;;22.70;33.40;;;;;;20852;6749;120362;-69
2022/05/02 12:35:21;;;;;;;7.00;6.60;;;23.00;31.80;;;;;;20601;6764;309225;-73
2022/05/02 12:37:57;;;;;;;6.03;5.73;;;23.00;31.80;;;;;;20877;6734;117020;-74
2022/05/02 12:40:33;;;;;;;7.10;6.80;;;23.40;30.40;;;;;;20603;6735;313319;-76
2022/05/02 12:43:09;;;;;;;6.67;6.33;;;23.40;30.40;;;;;;20780;6759;117289;-75
2022/05/02 12:45:45;;;;;;;6.10;5.70;;;23.40;30.80;;;;;;20704;6776;117232;-75
2022/05/02 12:48:20;;;;;;;6.80;6.12;;;23.30;31.40;;;;;;20584;6749;277608;-77
2022/05/02 12:50:55;;;;;;;6.10;5.63;;;23.50;31.00;;;;;;20668;6779;118012;-76
2022/05/02 12:56:27;;;;;;;6.67;6.20;;;23.50;30.80;;;;;;20558;6777;279818;-73
2022/05/02 13:02:00;;;;;;;4.97;4.60;;;23.90;29.90;;;;;;20600;6758;117553;-74
2022/05/02 13:04:35;;;;;;;4.97;4.67;;;23.90;29.90;;;;;;20536;6780;278592;-72
2022/05/02 13:07:10;;;;;;;4.78;4.57;;;23.90;29.60;;;;;;20547;6762;307632;-73
2022/05/02 13:09:47;;;;;;;5.30;4.80;;;24.20;29.30;;;;;;20498;6776;424828;-72
2022/05/02 13:12:22;;;;;;;4.60;4.30;;;24.20;29.30;;;;;;20767;6782;119233;-73
2022/05/02 13:14:58;;;;;;;4.70;4.50;;;24.00;29.50;;;;;;20529;6786;278027;-73
2022/05/02 13:17:33;;;;;;;5.03;4.72;;;24.00;29.40;;;;;;20455;6816;337402;-72
2022/05/02 13:20:12;;;;;;;4.60;4.40;;;24.10;28.90;;;;;;20550;6771;283138;-71
2022/05/02 13:23:04;;;;;;;4.32;4.05;;;24.20;28.60;;;;;;20631;6752;277449;-71